sim
Sign-in with your pilot id or email,
or register
Callsign
Passwort

Schedule Details

Flight Number: OEO5974
Departure: Mombasa Moi International Airport (HKMO) at 03:10
Arrival: Munich Airport (EDDM) at 12:10

Weather Information
Getting current METAR information for HKMO 291700Z 16005KT 9999 FEW025 26/21 Q1013 NOSIG
Getting current METAR information for EDDM 291720Z 26006KT 9999 SCT017 BKN030 11/09 Q1019 NOSIG

Schedule Frequency

Route Map